createdAt,value
2022-10-30T00:01:14.824Z,32.27
2022-10-30T00:03:42.238Z,29.90
2022-10-30T00:06:09.346Z,29.77
2022-10-30T00:08:36.490Z,29.37
2022-10-30T00:11:11.760Z,30.83
2022-10-30T00:13:39.499Z,29.10
2022-10-30T00:16:08.462Z,29.33
2022-10-30T00:18:36.920Z,28.93
2022-10-30T00:21:08.443Z,28.67
2022-10-30T00:23:35.453Z,28.43
2022-10-30T00:26:04.409Z,35.23
2022-10-30T00:28:31.342Z,31.43
2022-10-30T00:31:02.583Z,30.80
2022-10-30T00:33:29.751Z,31.57
2022-10-30T00:35:56.586Z,30.63
2022-10-30T00:38:23.408Z,30.83
2022-10-30T00:40:50.212Z,30.53
2022-10-30T00:43:32.446Z,29.60
2022-10-30T00:46:08.581Z,26.63
2022-10-30T00:48:36.216Z,30.47
2022-10-30T00:51:04.830Z,31.10
2022-10-30T00:53:31.890Z,31.47
2022-10-30T00:56:05.429Z,34.83
2022-10-30T00:58:48.421Z,30.17
2022-10-30T01:01:26.126Z,32.77
2022-10-30T01:03:59.680Z,34.67
2022-10-30T01:06:28.526Z,33.13
2022-10-30T01:08:59.955Z,35.23
2022-10-30T01:11:27.347Z,33.33
2022-10-30T01:13:59.148Z,30.00
2022-10-30T01:16:57.317Z,31.10
2022-10-30T01:19:54.419Z,32.00
2022-10-30T01:22:42.536Z,31.77
2022-10-30T01:25:43.761Z,30.27
2022-10-30T01:28:55.514Z,31.23
2022-10-30T01:31:31.102Z,31.90
2022-10-30T01:34:44.052Z,30.30
2022-10-30T01:37:20.860Z,30.53
2022-10-30T01:39:47.871Z,32.10
2022-10-30T01:42:45.076Z,30.10
2022-10-30T01:45:36.553Z,30.80
2022-10-30T01:48:12.348Z,31.37
2022-10-30T01:50:44.451Z,35.23
2022-10-30T01:53:25.288Z,32.47
2022-10-30T01:56:03.268Z,30.93
2022-10-30T01:58:55.061Z,30.40
2022-10-30T02:01:23.908Z,32.50
2022-10-30T02:03:51.611Z,35.57
2022-10-30T02:06:18.834Z,32.50
2022-10-30T02:08:45.777Z,35.87
2022-10-30T02:11:13.000Z,34.40
2022-10-30T02:13:40.091Z,34.87
2022-10-30T02:16:08.881Z,33.60
2022-10-30T02:18:35.797Z,33.67
2022-10-30T02:21:02.673Z,37.87
2022-10-30T02:23:29.502Z,31.90
2022-10-30T02:25:56.289Z,37.80
2022-10-30T02:28:23.202Z,33.47
2022-10-30T02:30:50.066Z,33.53
2022-10-30T02:35:48.629Z,38.20
2022-10-30T02:38:15.456Z,32.37
2022-10-30T02:40:42.247Z,33.90
2022-10-30T02:43:09.073Z,35.33
2022-10-30T02:45:35.958Z,33.00
2022-10-30T02:48:03.243Z,34.03
2022-10-30T02:50:30.472Z,36.47
2022-10-30T02:53:00.125Z,35.00
2022-10-30T02:55:27.528Z,35.37
2022-10-30T02:57:54.658Z,33.80
2022-10-30T03:00:21.439Z,32.70
2022-10-30T03:02:48.263Z,31.60
2022-10-30T03:05:15.349Z,33.87
2022-10-30T03:07:42.122Z,32.73
2022-10-30T03:10:09.327Z,34.07
2022-10-30T03:12:36.103Z,32.30
2022-10-30T03:15:02.925Z,36.30
2022-10-30T03:17:30.513Z,41.07
2022-10-30T03:19:57.392Z,35.73
2022-10-30T03:22:24.211Z,36.40
2022-10-30T03:24:50.992Z,33.53
2022-10-30T03:27:18.004Z,33.20
2022-10-30T03:29:44.812Z,31.80
2022-10-30T03:32:12.198Z,32.73
2022-10-30T03:34:39.091Z,33.87
2022-10-30T03:37:06.428Z,36.40
2022-10-30T03:39:33.388Z,36.07
2022-10-30T03:42:00.139Z,32.77
2022-10-30T03:44:26.949Z,35.07
2022-10-30T03:46:53.721Z,32.40
2022-10-30T03:49:21.018Z,34.50
2022-10-30T03:51:47.927Z,32.23
2022-10-30T03:54:14.687Z,34.53
2022-10-30T03:56:41.478Z,32.67
2022-10-30T03:59:08.402Z,32.90
2022-10-30T04:04:16.394Z,37.53
2022-10-30T04:06:43.252Z,33.40
2022-10-30T04:09:10.032Z,33.67
2022-10-30T04:11:36.910Z,37.47
2022-10-30T04:14:03.688Z,32.33
2022-10-30T04:16:30.539Z,36.00
2022-10-30T04:19:03.531Z,32.73
2022-10-30T04:21:30.296Z,32.53
2022-10-30T04:23:57.348Z,31.97
2022-10-30T04:26:24.216Z,38.83
2022-10-30T04:28:51.006Z,32.70
2022-10-30T04:31:20.349Z,34.83
2022-10-30T04:33:47.135Z,34.37
2022-10-30T04:36:14.083Z,33.53
2022-10-30T04:38:40.840Z,41.10
2022-10-30T04:41:08.775Z,37.23
2022-10-30T04:43:35.709Z,33.83
2022-10-30T04:46:06.128Z,34.60
2022-10-30T04:48:35.038Z,37.37
2022-10-30T04:51:01.972Z,36.60
2022-10-30T04:53:28.735Z,34.03
2022-10-30T04:55:55.741Z,37.07
2022-10-30T04:58:22.966Z,36.20
2022-10-30T05:00:49.725Z,36.77
2022-10-30T05:03:19.591Z,35.77
2022-10-30T05:05:48.195Z,36.87
2022-10-30T05:08:14.952Z,37.83
2022-10-30T05:10:41.947Z,38.83
2022-10-30T05:13:11.339Z,37.40
2022-10-30T05:15:38.442Z,38.23
2022-10-30T05:18:05.558Z,33.73
2022-10-30T05:20:32.371Z,39.70
2022-10-30T05:23:00.686Z,35.50
2022-10-30T05:25:28.506Z,35.60
2022-10-30T05:28:06.519Z,42.07
2022-10-30T05:30:34.602Z,36.37
2022-10-30T05:33:04.011Z,36.80
2022-10-30T05:35:34.488Z,36.43
2022-10-30T05:38:03.378Z,38.57
2022-10-30T05:40:30.530Z,34.83
2022-10-30T05:42:57.676Z,36.53
2022-10-30T05:45:24.723Z,47.40
2022-10-30T05:48:03.360Z,35.03
2022-10-30T05:50:31.314Z,35.43
2022-10-30T05:52:59.636Z,32.40
2022-10-30T05:55:27.121Z,39.57
2022-10-30T05:57:58.995Z,40.17
2022-10-30T06:00:28.028Z,35.60
2022-10-30T06:03:02.862Z,38.50
2022-10-30T06:05:31.945Z,39.33
2022-10-30T06:07:58.905Z,35.43
2022-10-30T06:10:26.214Z,34.97
2022-10-30T06:12:58.733Z,35.53
2022-10-30T06:15:26.622Z,34.10
2022-10-30T06:17:53.825Z,35.53
2022-10-30T06:20:22.932Z,35.23
2022-10-30T06:23:00.121Z,37.73
2022-10-30T06:25:33.160Z,37.10
2022-10-30T06:28:01.909Z,33.47
2022-10-30T06:30:29.582Z,37.73
2022-10-30T06:33:01.264Z,35.80
2022-10-30T06:35:29.250Z,34.73
2022-10-30T06:38:00.331Z,32.40
2022-10-30T06:40:29.880Z,32.20
2022-10-30T06:42:57.575Z,34.70
2022-10-30T06:45:25.210Z,48.87
2022-10-30T06:47:52.275Z,32.20
2022-10-30T06:50:21.003Z,37.60
2022-10-30T06:52:48.722Z,33.33
2022-10-30T06:55:15.728Z,35.07
2022-10-30T06:57:42.820Z,39.10
2022-10-30T07:00:10.314Z,34.50
2022-10-30T07:02:43.767Z,30.57
2022-10-30T07:05:10.670Z,34.33
2022-10-30T07:07:37.456Z,31.40
2022-10-30T07:10:04.515Z,33.20
2022-10-30T07:12:31.276Z,32.83
2022-10-30T07:14:58.151Z,32.03
2022-10-30T07:17:24.988Z,34.07
2022-10-30T07:19:51.807Z,30.63
2022-10-30T07:22:18.657Z,30.87
2022-10-30T07:24:45.441Z,40.17
2022-10-30T07:27:12.271Z,39.67
2022-10-30T07:29:39.067Z,31.53
2022-10-30T07:32:05.898Z,30.73
2022-10-30T07:34:32.782Z,27.37
2022-10-30T07:36:59.611Z,29.03
2022-10-30T07:39:26.448Z,29.77
2022-10-30T07:41:53.704Z,29.23
2022-10-30T07:44:20.609Z,29.17
2022-10-30T07:46:47.450Z,30.90
2022-10-30T07:49:14.203Z,25.93
2022-10-30T07:51:41.685Z,28.70
2022-10-30T07:54:08.446Z,27.87
2022-10-30T07:56:35.441Z,35.27
2022-10-30T07:59:02.285Z,30.53
2022-10-30T08:01:29.158Z,27.50
2022-10-30T08:03:57.103Z,39.00
2022-10-30T08:06:27.035Z,28.20
2022-10-30T08:08:54.457Z,28.43
2022-10-30T08:11:21.601Z,30.37
2022-10-30T08:13:48.425Z,34.23
2022-10-30T08:16:17.263Z,32.10
2022-10-30T08:18:44.754Z,23.50
2022-10-30T08:21:11.703Z,24.40
2022-10-30T08:23:38.525Z,25.60
2022-10-30T08:26:05.624Z,20.80
2022-10-30T08:28:47.644Z,35.07
2022-10-30T08:31:14.623Z,23.77
2022-10-30T08:33:41.411Z,22.83
2022-10-30T08:36:12.330Z,23.63
2022-10-30T08:38:39.318Z,20.73
2022-10-30T08:41:06.105Z,22.83
2022-10-30T08:43:32.920Z,20.73
2022-10-30T08:45:59.705Z,20.83
2022-10-30T08:51:19.477Z,24.83
2022-10-30T08:53:49.184Z,21.73
2022-10-30T08:56:17.066Z,23.10
2022-10-30T08:58:43.888Z,18.87
2022-10-30T09:01:11.701Z,19.67
2022-10-30T09:03:39.038Z,19.40
2022-10-30T09:06:06.096Z,22.07
2022-10-30T09:08:32.860Z,20.47
2022-10-30T09:10:59.757Z,18.77
2022-10-30T09:13:27.096Z,20.67
2022-10-30T09:16:01.554Z,22.37
2022-10-30T09:18:29.051Z,21.20
2022-10-30T09:20:56.032Z,21.03
2022-10-30T09:23:22.809Z,23.57
2022-10-30T09:25:49.835Z,22.63
2022-10-30T09:28:16.632Z,19.33
2022-10-30T09:30:43.423Z,20.83
2022-10-30T09:33:10.292Z,25.83
2022-10-30T09:35:37.248Z,24.33
2022-10-30T09:38:04.224Z,22.07
2022-10-30T09:40:46.740Z,22.33
2022-10-30T09:43:58.062Z,17.87
2022-10-30T09:46:49.652Z,19.03
2022-10-30T09:49:28.375Z,19.10
2022-10-30T09:52:42.632Z,20.07
2022-10-30T09:55:19.783Z,17.27
2022-10-30T09:57:46.597Z,21.37
2022-10-30T10:00:20.163Z,17.27
2022-10-30T10:03:12.445Z,15.13
2022-10-30T10:05:58.654Z,16.13
2022-10-30T10:08:37.750Z,18.47
2022-10-30T10:11:21.488Z,18.43
2022-10-30T10:14:00.171Z,16.77
2022-10-30T10:16:37.103Z,15.27
2022-10-30T10:19:24.124Z,16.50
2022-10-30T10:22:01.768Z,15.50
2022-10-30T10:24:35.127Z,15.27
2022-10-30T10:27:18.448Z,18.07
2022-10-30T10:30:17.347Z,13.67
2022-10-30T10:33:06.046Z,12.80
2022-10-30T10:36:11.072Z,17.87
2022-10-30T10:38:55.112Z,15.57
2022-10-30T10:41:24.874Z,12.93
2022-10-30T10:44:00.393Z,12.10
2022-10-30T10:47:04.370Z,12.50
2022-10-30T10:50:10.812Z,11.53
2022-10-30T11:00:31.054Z,13.20
2022-10-30T11:06:20.405Z,11.87
2022-10-30T11:08:48.657Z,12.90
2022-10-30T11:11:15.664Z,9.93
2022-10-30T11:13:44.443Z,10.37
2022-10-30T11:16:32.711Z,7.97
2022-10-30T11:19:02.436Z,8.97
2022-10-30T11:21:33.607Z,8.50
2022-10-30T11:24:00.413Z,7.10
2022-10-30T11:26:30.687Z,8.37
2022-10-30T11:29:13.934Z,7.23
2022-10-30T11:31:43.240Z,6.97
2022-10-30T11:34:33.339Z,10.63
2022-10-30T11:37:00.269Z,8.50
2022-10-30T11:39:29.509Z,8.83
2022-10-30T11:42:18.399Z,8.77
2022-10-30T11:44:49.613Z,5.27
2022-10-30T11:47:21.660Z,6.83
2022-10-30T11:49:53.377Z,8.17
2022-10-30T11:52:23.646Z,7.37
2022-10-30T11:57:42.975Z,5.93
2022-10-30T12:00:31.986Z,6.90
2022-10-30T12:03:01.544Z,6.13
2022-10-30T12:05:38.803Z,7.90
2022-10-30T12:08:08.663Z,7.32
2022-10-30T12:10:46.382Z,27.40
2022-10-30T12:13:21.914Z,8.88
2022-10-30T12:15:51.543Z,9.68
2022-10-30T12:20:59.936Z,15.60
2022-10-30T12:23:38.319Z,12.90
2022-10-30T12:26:11.422Z,9.37
2022-10-30T12:28:39.644Z,12.30
2022-10-30T12:31:20.958Z,9.23
2022-10-30T12:33:50.448Z,9.93
2022-10-30T12:36:24.248Z,10.83
2022-10-30T12:38:57.917Z,9.90
2022-10-30T12:41:46.884Z,8.57
2022-10-30T12:44:21.517Z,8.93
2022-10-30T12:47:01.237Z,7.80
2022-10-30T12:49:31.528Z,10.00
2022-10-30T12:52:10.579Z,7.40
2022-10-30T12:54:52.117Z,7.17
2022-10-30T12:57:33.552Z,8.70
2022-10-30T13:00:03.622Z,9.50
2022-10-30T13:03:05.529Z,8.00
2022-10-30T13:05:47.465Z,6.57
2022-10-30T13:08:26.302Z,6.67
2022-10-30T13:11:00.073Z,6.17
2022-10-30T13:13:50.070Z,5.50
2022-10-30T13:16:30.317Z,5.07
2022-10-30T13:19:01.042Z,5.83
2022-10-30T13:21:55.600Z,5.70
2022-10-30T13:24:29.504Z,3.87
2022-10-30T13:27:41.683Z,4.40
2022-10-30T13:30:20.988Z,6.37
2022-10-30T13:33:02.752Z,4.80
2022-10-30T13:35:54.622Z,4.10
2022-10-30T13:38:40.501Z,3.57
2022-10-30T13:41:32.287Z,3.33
2022-10-30T13:44:34.477Z,5.80
2022-10-30T13:47:20.008Z,5.10
2022-10-30T13:50:07.835Z,4.07
2022-10-30T13:52:38.000Z,3.70
2022-10-30T13:55:29.679Z,3.93
2022-10-30T13:58:19.914Z,4.77
2022-10-30T14:01:05.945Z,3.53
2022-10-30T14:04:19.922Z,4.20
2022-10-30T14:07:05.627Z,3.10
2022-10-30T14:09:44.280Z,4.03
2022-10-30T14:12:44.022Z,5.53
2022-10-30T14:15:31.002Z,4.33
2022-10-30T14:18:12.593Z,6.97
2022-10-30T14:20:46.399Z,6.03
2022-10-30T14:23:21.487Z,5.00
2022-10-30T14:26:12.814Z,6.07
2022-10-30T14:28:46.988Z,4.60
2022-10-30T14:31:19.546Z,4.70
2022-10-30T14:33:53.968Z,6.57
2022-10-30T14:36:25.140Z,4.43
2022-10-30T14:39:21.624Z,5.40
2022-10-30T14:42:15.879Z,7.63
2022-10-30T14:45:18.307Z,5.63
2022-10-30T14:47:54.210Z,6.40
2022-10-30T14:50:29.533Z,5.80
2022-10-30T14:53:18.115Z,6.37
2022-10-30T14:56:22.543Z,5.13
2022-10-30T14:59:09.726Z,7.23
2022-10-30T15:02:11.667Z,6.80
2022-10-30T15:04:44.443Z,5.80
2022-10-30T15:07:38.418Z,8.63
2022-10-30T15:10:31.416Z,7.07
2022-10-30T15:13:15.046Z,5.67
2022-10-30T15:15:43.225Z,10.23
2022-10-30T15:18:32.706Z,10.60
2022-10-30T15:21:08.001Z,8.83
2022-10-30T15:23:41.518Z,9.27
2022-10-30T15:26:20.909Z,8.30
2022-10-30T15:29:26.468Z,11.50
2022-10-30T15:32:01.365Z,12.33
2022-10-30T15:34:30.305Z,15.23
2022-10-30T15:36:57.342Z,13.27
2022-10-30T15:42:16.088Z,13.27
2022-10-30T15:44:45.671Z,14.50
2022-10-30T15:47:21.081Z,12.23
2022-10-30T15:50:01.799Z,11.60
2022-10-30T15:52:32.390Z,10.93
2022-10-30T15:55:22.109Z,11.00
2022-10-30T15:58:07.631Z,12.20
2022-10-30T16:00:37.043Z,10.57
2022-10-30T16:03:07.418Z,11.07
2022-10-30T16:05:35.532Z,13.30
2022-10-30T16:08:04.404Z,12.67
2022-10-30T16:10:36.170Z,12.53
2022-10-30T16:13:04.180Z,11.80
2022-10-30T16:15:34.523Z,11.67
2022-10-30T16:18:15.058Z,14.13
2022-10-30T16:20:44.855Z,12.73
2022-10-30T16:23:12.695Z,12.17
2022-10-30T16:25:45.903Z,11.67
2022-10-30T16:28:32.089Z,13.63
2022-10-30T16:31:14.372Z,12.70
2022-10-30T16:33:43.665Z,15.37
2022-10-30T16:36:17.079Z,12.53
2022-10-30T16:38:47.501Z,14.97
2022-10-30T16:41:14.959Z,12.57
2022-10-30T16:43:48.597Z,13.83
2022-10-30T16:46:15.333Z,13.87
2022-10-30T16:49:05.869Z,12.03
2022-10-30T16:51:32.824Z,12.67
2022-10-30T16:53:59.928Z,15.10
2022-10-30T16:56:29.311Z,13.57
2022-10-30T16:59:15.108Z,12.73
2022-10-30T17:01:42.175Z,12.13
2022-10-30T17:06:47.386Z,13.17
2022-10-30T17:09:26.271Z,13.40
2022-10-30T17:12:21.061Z,14.77
2022-10-30T17:14:54.114Z,12.90
2022-10-30T17:17:30.008Z,13.17
2022-10-30T17:20:12.700Z,12.60
2022-10-30T17:22:39.707Z,14.80
2022-10-30T17:25:24.715Z,12.20
2022-10-30T17:27:51.865Z,13.87
2022-10-30T17:30:35.115Z,12.40
2022-10-30T17:33:21.731Z,12.57
2022-10-30T17:35:48.702Z,13.80
2022-10-30T17:38:17.625Z,13.53
2022-10-30T17:40:45.022Z,12.87
2022-10-30T17:43:15.450Z,14.20
2022-10-30T17:45:51.605Z,13.37
2022-10-30T17:48:20.851Z,12.27
2022-10-30T17:50:47.879Z,12.20
2022-10-30T17:53:23.716Z,12.73
2022-10-30T17:56:04.497Z,13.87
2022-10-30T17:58:31.470Z,14.37
2022-10-30T18:00:59.651Z,16.77
2022-10-30T18:03:26.798Z,16.53
2022-10-30T18:05:54.367Z,15.73
2022-10-30T18:08:21.320Z,14.50
2022-10-30T18:10:48.199Z,14.87
2022-10-30T18:13:15.706Z,14.30
2022-10-30T18:15:52.999Z,13.73
2022-10-30T18:18:20.164Z,17.33
2022-10-30T18:20:47.162Z,14.53
2022-10-30T18:26:18.173Z,16.37
2022-10-30T18:28:45.634Z,14.47
2022-10-30T18:31:14.600Z,14.67
2022-10-30T18:33:42.721Z,14.93
2022-10-30T18:36:14.726Z,14.43
2022-10-30T18:38:41.577Z,16.53
2022-10-30T18:41:39.726Z,17.20
2022-10-30T18:44:06.748Z,15.77
2022-10-30T18:46:34.584Z,14.00
2022-10-30T18:49:01.483Z,14.13
2022-10-30T18:51:29.197Z,15.20
2022-10-30T18:53:57.349Z,15.83
2022-10-30T18:56:27.052Z,16.63
2022-10-30T18:59:00.771Z,16.70
2022-10-30T19:01:34.731Z,17.17
2022-10-30T19:04:03.080Z,16.53
2022-10-30T19:06:32.173Z,16.50
2022-10-30T19:08:59.031Z,15.30
2022-10-30T19:11:31.766Z,16.53
2022-10-30T19:13:59.868Z,18.70
2022-10-30T19:16:27.120Z,18.93
2022-10-30T19:18:54.318Z,17.73
2022-10-30T19:21:23.494Z,16.87
2022-10-30T19:23:50.567Z,17.60
2022-10-30T19:26:23.314Z,18.43
2022-10-30T19:28:50.154Z,16.60
2022-10-30T19:31:18.934Z,18.60
2022-10-30T19:33:50.010Z,20.37
2022-10-30T19:36:31.898Z,17.90
2022-10-30T19:39:04.210Z,18.43
2022-10-30T19:41:35.631Z,20.27
2022-10-30T19:44:02.542Z,20.13
2022-10-30T19:46:29.515Z,20.47
2022-10-30T19:48:58.068Z,20.00
2022-10-30T19:51:26.861Z,15.93
2022-10-30T19:53:54.146Z,17.33
2022-10-30T19:56:21.604Z,18.67
2022-10-30T19:58:48.694Z,17.50
2022-10-30T20:01:15.969Z,17.20
2022-10-30T20:03:43.023Z,18.03
2022-10-30T20:06:19.359Z,17.67
2022-10-30T20:08:57.748Z,17.87
2022-10-30T20:11:24.673Z,17.27
2022-10-30T20:13:54.838Z,20.63
2022-10-30T20:16:21.902Z,16.07
2022-10-30T20:18:49.519Z,17.37
2022-10-30T20:21:18.959Z,18.00
2022-10-30T20:23:46.357Z,16.03
2022-10-30T20:26:29.246Z,17.33
2022-10-30T20:28:56.592Z,14.87
2022-10-30T20:31:23.436Z,17.77
2022-10-30T20:33:50.308Z,19.17
2022-10-30T20:36:23.050Z,18.90
2022-10-30T20:38:51.409Z,20.20
2022-10-30T20:41:21.990Z,17.83
2022-10-30T20:43:50.243Z,18.83
2022-10-30T20:46:18.354Z,18.50
2022-10-30T20:48:45.260Z,19.60
2022-10-30T20:51:12.700Z,22.03
2022-10-30T20:53:40.242Z,21.83
2022-10-30T20:56:09.801Z,18.43
2022-10-30T20:58:36.682Z,25.27
2022-10-30T21:01:03.618Z,20.70
2022-10-30T21:06:01.068Z,19.83
2022-10-30T21:08:38.516Z,18.97
2022-10-30T21:11:07.304Z,20.67
2022-10-30T21:13:35.442Z,24.07
2022-10-30T21:16:06.833Z,20.23
2022-10-30T21:18:34.471Z,20.70
2022-10-30T21:21:08.379Z,19.83
2022-10-30T21:23:35.305Z,20.63
2022-10-30T21:26:04.577Z,19.00
2022-10-30T21:28:31.688Z,19.53
2022-10-30T21:31:03.383Z,18.50
2022-10-30T21:33:31.870Z,20.40
2022-10-30T21:36:11.932Z,17.73
2022-10-30T21:38:42.292Z,20.67
2022-10-30T21:43:57.796Z,19.93
2022-10-30T21:46:37.537Z,19.70
2022-10-30T21:49:11.731Z,22.10
2022-10-30T21:51:39.705Z,18.53
2022-10-30T21:54:06.627Z,16.67
2022-10-30T21:56:33.458Z,17.90
2022-10-30T21:59:00.607Z,19.43
2022-10-30T22:01:29.677Z,20.83
2022-10-30T22:04:02.782Z,20.87
2022-10-30T22:06:30.273Z,19.77
2022-10-30T22:08:58.126Z,19.10
2022-10-30T22:11:29.171Z,20.10
2022-10-30T22:14:01.216Z,20.20
2022-10-30T22:16:29.603Z,18.03
2022-10-30T22:18:57.332Z,19.90
2022-10-30T22:21:25.154Z,20.77
2022-10-30T22:23:53.108Z,22.17
2022-10-30T22:26:35.053Z,22.07
2022-10-30T22:29:34.638Z,19.30
2022-10-30T22:32:01.643Z,19.10
2022-10-30T22:34:28.578Z,18.87
2022-10-30T22:36:55.537Z,19.63
2022-10-30T22:39:22.615Z,16.60
2022-10-30T22:41:49.547Z,19.33
2022-10-30T22:44:19.717Z,19.87
2022-10-30T22:46:46.558Z,21.47
2022-10-30T22:49:13.442Z,20.60
2022-10-30T22:51:40.529Z,19.00
2022-10-30T22:54:10.671Z,18.43
2022-10-30T22:56:38.266Z,19.63
2022-10-30T22:59:08.300Z,20.90
2022-10-30T23:01:36.999Z,18.97
2022-10-30T23:04:05.836Z,20.20
2022-10-30T23:06:34.940Z,18.47
2022-10-30T23:09:05.397Z,17.07
2022-10-30T23:11:33.157Z,17.60
2022-10-30T23:14:00.308Z,18.77
2022-10-30T23:16:27.903Z,17.87
2022-10-30T23:18:56.881Z,17.50
2022-10-30T23:21:26.006Z,21.97
2022-10-30T23:23:53.177Z,19.27
2022-10-30T23:26:26.552Z,18.30
2022-10-30T23:28:55.126Z,20.17
2022-10-30T23:31:27.912Z,19.10
2022-10-30T23:33:56.722Z,18.00
2022-10-30T23:36:24.520Z,19.47
2022-10-30T23:38:56.559Z,18.70
2022-10-30T23:41:25.803Z,18.23
2022-10-30T23:43:57.151Z,20.87
2022-10-30T23:46:24.185Z,20.37
2022-10-30T23:48:51.329Z,20.87
2022-10-30T23:51:18.701Z,17.67
2022-10-30T23:53:46.364Z,20.13
2022-10-30T23:56:14.042Z,20.30
2022-10-30T23:58:50.175Z,20.83
